Gull Lake, Canada
Current Conditions -  °F | °C
As of 10:00 PM on Thursday 30 Oct 2014 (Local Time) from CYYN Reporting Station
Overcast Overcast  
Wind Chill: 18°   Ceiling: 700
Heat Index: 32°   Visibility: 9mi
Dew Point: 28°   Wind: 30mph
Humidity: 87%   Direction: 150°SSE
Pressure: 30.24"   Gusts: 37mph
Location:  50.1°N, 108.48°W
Report Text: CYYN 310400Z AUTO 15026G32KT 9SM OVC007 M00/M02 A3024 RMK PRESFR SLP273
Loading
Personal Weather Stations






























Interactive Weather Map
Tropical Storm Tracking
New forecast layout! Learn more

10-Day Weather Forecast

Advertisements
Track Severe Weather on mobile